Pagina principale
METAR-TAF:

METAR-TAF

Aeroporti :

Aeroporto di Avignone Caumont

Avignone, Francia

latitudine: 43-54-26N, longitudine: 004-54-07E, altezza: 38 m

Osservazione

Il bollettino è stato emesso 10 minuti fa, alle 05:00 UTC
Vento 13 kt da nord/nord-ovest
Temperature 5°C
Umidità 81%
Pressione 1013 hPa
Visibilità 10 km o più
nessuna nube inferiore a 1500 m e nessun cumulonembo

METAR: LFMV 300500Z AUTO 34013KT CAVOK 05/02 Q1013

Ora: 07:10 (05:10 UTC)


TAF: mancante

Osservazioni e previsioni meteorologiche di più di 4000 aeroporti (messaggi METAR e TAF).

Le stazioni disponibili sono rappresentate dai dischi gialli e rossi sulla carta.

Puntare il mouse per vedere il nome della stazione.

Clicca sopra per visualizzare le osservazioni e previsioni meteorologiche.

Per cambiare la mappa : fare clic sui pulsanti verdi con una croce nera per ingrandire, il pulsante verde con un trattino per diminuire, o sulla freccia verde per le mappe adiacenti.


METAR-TAF: